sensor_id;sensor_type;location;lat;lon;timestamp;P1;durP1;ratioP1;P2;durP2;ratioP2
15234;SDS011;7720;51.926;4.488;2023-04-30T00:03:18;10.80;;;8.63;;
15234;SDS011;7720;51.926;4.488;2023-04-30T00:08:22;14.23;;;9.52;;
15234;SDS011;7720;51.926;4.488;2023-04-30T00:13:26;13.77;;;9.05;;
15234;SDS011;7720;51.926;4.488;2023-04-30T00:18:30;13.20;;;10.20;;
15234;SDS011;7720;51.926;4.488;2023-04-30T00:23:34;10.77;;;9.02;;
15234;SDS011;7720;51.926;4.488;2023-04-30T00:28:39;16.48;;;9.18;;
15234;SDS011;7720;51.926;4.488;2023-04-30T00:33:42;11.88;;;9.48;;
15234;SDS011;7720;51.926;4.488;2023-04-30T00:38:46;15.70;;;9.18;;
15234;SDS011;7720;51.926;4.488;2023-04-30T00:43:51;13.10;;;9.48;;
15234;SDS011;7720;51.926;4.488;2023-04-30T00:48:55;13.55;;;9.57;;
15234;SDS011;7720;51.926;4.488;2023-04-30T00:53:59;14.48;;;8.98;;
15234;SDS011;7720;51.926;4.488;2023-04-30T00:59:05;13.88;;;9.57;;
15234;SDS011;7720;51.926;4.488;2023-04-30T01:04:09;14.73;;;10.02;;
15234;SDS011;7720;51.926;4.488;2023-04-30T01:09:13;14.50;;;10.10;;
15234;SDS011;7720;51.926;4.488;2023-04-30T01:14:20;13.75;;;9.77;;
15234;SDS011;7720;51.926;4.488;2023-04-30T01:19:28;13.75;;;10.07;;
15234;SDS011;7720;51.926;4.488;2023-04-30T01:24:42;15.10;;;10.55;;
15234;SDS011;7720;51.926;4.488;2023-04-30T01:29:53;14.85;;;10.60;;
15234;SDS011;7720;51.926;4.488;2023-04-30T01:34:58;16.92;;;10.35;;
15234;SDS011;7720;51.926;4.488;2023-04-30T01:40:13;15.15;;;10.38;;
15234;SDS011;7720;51.926;4.488;2023-04-30T01:45:30;17.77;;;12.05;;
15234;SDS011;7720;51.926;4.488;2023-04-30T01:50:37;15.88;;;12.18;;
15234;SDS011;7720;51.926;4.488;2023-04-30T01:55:41;16.73;;;10.90;;
15234;SDS011;7720;51.926;4.488;2023-04-30T02:00:47;16.65;;;10.88;;
15234;SDS011;7720;51.926;4.488;2023-04-30T02:05:51;18.20;;;11.25;;
15234;SDS011;7720;51.926;4.488;2023-04-30T02:10:55;16.02;;;11.40;;
15234;SDS011;7720;51.926;4.488;2023-04-30T02:16:00;16.20;;;11.70;;
15234;SDS011;7720;51.926;4.488;2023-04-30T02:21:04;14.15;;;10.68;;
15234;SDS011;7720;51.926;4.488;2023-04-30T02:26:08;17.00;;;11.55;;
15234;SDS011;7720;51.926;4.488;2023-04-30T02:31:13;16.20;;;11.88;;
15234;SDS011;7720;51.926;4.488;2023-04-30T02:36:19;16.42;;;11.75;;
15234;SDS011;7720;51.926;4.488;2023-04-30T02:41:23;16.67;;;12.95;;
15234;SDS011;7720;51.926;4.488;2023-04-30T02:46:28;16.65;;;11.60;;
15234;SDS011;7720;51.926;4.488;2023-04-30T02:51:31;18.83;;;12.48;;
15234;SDS011;7720;51.926;4.488;2023-04-30T02:56:35;17.80;;;12.10;;
15234;SDS011;7720;51.926;4.488;2023-04-30T03:01:41;17.60;;;11.98;;
15234;SDS011;7720;51.926;4.488;2023-04-30T03:06:44;15.38;;;11.88;;
15234;SDS011;7720;51.926;4.488;2023-04-30T03:11:48;16.00;;;12.05;;
15234;SDS011;7720;51.926;4.488;2023-04-30T03:16:53;18.33;;;12.27;;
15234;SDS011;7720;51.926;4.488;2023-04-30T03:21:57;22.25;;;12.02;;
15234;SDS011;7720;51.926;4.488;2023-04-30T03:27:00;15.13;;;12.23;;
15234;SDS011;7720;51.926;4.488;2023-04-30T03:32:05;14.98;;;11.10;;
15234;SDS011;7720;51.926;4.488;2023-04-30T03:37:09;15.20;;;11.40;;
15234;SDS011;7720;51.926;4.488;2023-04-30T03:42:13;15.90;;;11.95;;
15234;SDS011;7720;51.926;4.488;2023-04-30T03:47:18;17.30;;;11.63;;
15234;SDS011;7720;51.926;4.488;2023-04-30T03:52:21;18.67;;;12.35;;
15234;SDS011;7720;51.926;4.488;2023-04-30T03:57:25;17.33;;;12.57;;
15234;SDS011;7720;51.926;4.488;2023-04-30T04:02:31;14.75;;;11.55;;
15234;SDS011;7720;51.926;4.488;2023-04-30T04:07:35;14.43;;;11.38;;
15234;SDS011;7720;51.926;4.488;2023-04-30T04:12:38;15.18;;;11.85;;
15234;SDS011;7720;51.926;4.488;2023-04-30T04:17:43;16.65;;;10.75;;
15234;SDS011;7720;51.926;4.488;2023-04-30T04:22:47;15.00;;;10.45;;
15234;SDS011;7720;51.926;4.488;2023-04-30T04:27:51;11.70;;;9.38;;
15234;SDS011;7720;51.926;4.488;2023-04-30T04:32:56;12.85;;;8.70;;
15234;SDS011;7720;51.926;4.488;2023-04-30T04:38:02;13.60;;;8.60;;
15234;SDS011;7720;51.926;4.488;2023-04-30T04:43:06;11.43;;;7.63;;
15234;SDS011;7720;51.926;4.488;2023-04-30T04:48:11;12.88;;;8.27;;
15234;SDS011;7720;51.926;4.488;2023-04-30T04:53:15;10.40;;;7.43;;
15234;SDS011;7720;51.926;4.488;2023-04-30T04:58:19;10.77;;;7.25;;
15234;SDS011;7720;51.926;4.488;2023-04-30T05:03:24;9.45;;;7.07;;
15234;SDS011;7720;51.926;4.488;2023-04-30T05:08:28;9.68;;;6.32;;
15234;SDS011;7720;51.926;4.488;2023-04-30T05:13:32;8.82;;;6.68;;
15234;SDS011;7720;51.926;4.488;2023-04-30T05:18:37;9.45;;;6.72;;
15234;SDS011;7720;51.926;4.488;2023-04-30T05:23:40;8.85;;;7.10;;
15234;SDS011;7720;51.926;4.488;2023-04-30T05:28:44;7.68;;;6.43;;
15234;SDS011;7720;51.926;4.488;2023-04-30T19:04:34;1.70;;;1.10;;
15234;SDS011;7720;51.926;4.488;2023-04-30T19:09:37;2.33;;;1.30;;
15234;SDS011;7720;51.926;4.488;2023-04-30T19:14:41;2.75;;;1.20;;
15234;SDS011;7720;51.926;4.488;2023-04-30T19:19:45;2.30;;;1.38;;
15234;SDS011;7720;51.926;4.488;2023-04-30T19:24:49;2.50;;;1.40;;
15234;SDS011;7720;51.926;4.488;2023-04-30T19:29:53;2.95;;;1.60;;
15234;SDS011;7720;51.926;4.488;2023-04-30T19:34:59;1.35;;;1.10;;
15234;SDS011;7720;51.926;4.488;2023-04-30T19:40:05;2.22;;;1.20;;
15234;SDS011;7720;51.926;4.488;2023-04-30T19:45:12;2.63;;;1.13;;
15234;SDS011;7720;51.926;4.488;2023-04-30T19:50:17;2.95;;;1.85;;
15234;SDS011;7720;51.926;4.488;2023-04-30T19:55:21;2.03;;;1.30;;
15234;SDS011;7720;51.926;4.488;2023-04-30T20:00:24;2.28;;;1.48;;
15234;SDS011;7720;51.926;4.488;2023-04-30T20:05:29;4.05;;;1.30;;
15234;SDS011;7720;51.926;4.488;2023-04-30T20:10:34;2.15;;;1.48;;
15234;SDS011;7720;51.926;4.488;2023-04-30T20:15:38;4.03;;;1.50;;
15234;SDS011;7720;51.926;4.488;2023-04-30T20:20:43;2.33;;;1.50;;
15234;SDS011;7720;51.926;4.488;2023-04-30T20:25:46;2.88;;;1.67;;
15234;SDS011;7720;51.926;4.488;2023-04-30T20:30:50;2.53;;;1.70;;
15234;SDS011;7720;51.926;4.488;2023-04-30T20:35:55;3.45;;;1.60;;
15234;SDS011;7720;51.926;4.488;2023-04-30T20:40:58;3.28;;;1.60;;
15234;SDS011;7720;51.926;4.488;2023-04-30T20:46:02;3.28;;;1.92;;
15234;SDS011;7720;51.926;4.488;2023-04-30T20:51:07;2.92;;;1.60;;
15234;SDS011;7720;51.926;4.488;2023-04-30T20:56:10;2.58;;;1.60;;
15234;SDS011;7720;51.926;4.488;2023-04-30T21:01:14;3.00;;;2.00;;
15234;SDS011;7720;51.926;4.488;2023-04-30T21:06:18;2.65;;;1.52;;
15234;SDS011;7720;51.926;4.488;2023-04-30T21:11:22;2.78;;;1.80;;
15234;SDS011;7720;51.926;4.488;2023-04-30T21:16:26;4.30;;;1.80;;
15234;SDS011;7720;51.926;4.488;2023-04-30T21:21:31;2.90;;;1.85;;
15234;SDS011;7720;51.926;4.488;2023-04-30T21:26:34;5.53;;;2.10;;
15234;SDS011;7720;51.926;4.488;2023-04-30T21:31:38;3.40;;;1.95;;
15234;SDS011;7720;51.926;4.488;2023-04-30T21:36:42;3.92;;;2.10;;
15234;SDS011;7720;51.926;4.488;2023-04-30T21:41:45;3.33;;;2.00;;
15234;SDS011;7720;51.926;4.488;2023-04-30T21:46:49;5.50;;;2.17;;
15234;SDS011;7720;51.926;4.488;2023-04-30T21:51:54;4.13;;;2.20;;
15234;SDS011;7720;51.926;4.488;2023-04-30T21:56:58;3.75;;;2.30;;
15234;SDS011;7720;51.926;4.488;2023-04-30T22:02:02;3.22;;;2.22;;
15234;SDS011;7720;51.926;4.488;2023-04-30T22:07:21;3.42;;;2.70;;
15234;SDS011;7720;51.926;4.488;2023-04-30T22:12:25;3.38;;;2.20;;
15234;SDS011;7720;51.926;4.488;2023-04-30T22:17:28;4.53;;;2.47;;
15234;SDS011;7720;51.926;4.488;2023-04-30T22:22:33;5.10;;;2.47;;
15234;SDS011;7720;51.926;4.488;2023-04-30T22:27:37;3.90;;;2.53;;
15234;SDS011;7720;51.926;4.488;2023-04-30T22:32:40;3.90;;;2.42;;
15234;SDS011;7720;51.926;4.488;2023-04-30T22:37:45;3.50;;;2.35;;
15234;SDS011;7720;51.926;4.488;2023-04-30T22:42:48;4.88;;;2.70;;
15234;SDS011;7720;51.926;4.488;2023-04-30T22:47:52;3.72;;;2.67;;
15234;SDS011;7720;51.926;4.488;2023-04-30T22:52:57;5.18;;;2.25;;
15234;SDS011;7720;51.926;4.488;2023-04-30T22:58:00;5.95;;;2.70;;
15234;SDS011;7720;51.926;4.488;2023-04-30T23:03:04;4.00;;;2.35;;
15234;SDS011;7720;51.926;4.488;2023-04-30T23:08:10;3.95;;;2.70;;
15234;SDS011;7720;51.926;4.488;2023-04-30T23:13:24;4.78;;;2.75;;
15234;SDS011;7720;51.926;4.488;2023-04-30T23:18:28;3.08;;;2.42;;
15234;SDS011;7720;51.926;4.488;2023-04-30T23:23:33;4.97;;;2.75;;
15234;SDS011;7720;51.926;4.488;2023-04-30T23:28:36;5.32;;;2.92;;
15234;SDS011;7720;51.926;4.488;2023-04-30T23:33:40;3.25;;;2.95;;
15234;SDS011;7720;51.926;4.488;2023-04-30T23:38:44;3.67;;;2.85;;
15234;SDS011;7720;51.926;4.488;2023-04-30T23:43:48;4.05;;;2.55;;
15234;SDS011;7720;51.926;4.488;2023-04-30T23:48:51;3.35;;;2.80;;
15234;SDS011;7720;51.926;4.488;2023-04-30T23:53:56;4.13;;;3.00;;
15234;SDS011;7720;51.926;4.488;2023-04-30T23:59:00;4.25;;;2.78;;
